Airfield :
LOGIN :

Register | Disclaimer

   EN    FR    IT 

 










Legend :    VFR   Marginal VFR   IFR   Intensive IFR   Very Intensive IFR
Visi :
Ceiling :
>= 8 km
>= 3000ft
5 to 8 km
1000 to 3000 ft
1500m to 5 km
500 to 1000 ft
800 to 1500m
200 to 500 ft
< 800m
< 200 ft
Symbols :   Thunderstorms  Fog  Heavy snow  Heavy precipitations  Wind > 20 kt
SIGMETs :     Misc.  Thunderstorms  Icing  Turbulence  Mountain Waves  Volcanic Ashes







- Airport Elevation : 313 ft
- IATA code : LEH
- Download approach charts


LFOH - Le Havre Octeville

CURRENT METAR :
  • 211700Z AUTO 32007KT 9999 BKN008 BKN064 19/16 Q1015 TEMPO 4000 BR BECMG BKN025

EXPIRED METARs :
  • 211630Z AUTO 32007KT 280V340 9999 BKN007 BKN026 19/16 Q1015 TEMPO 4000 BR BECMG BKN025
  • 211600Z AUTO 31007KT 9999 BKN024 19/16 Q1015 TEMPO 4000 BR BKN006
  • 211530Z AUTO 30006KT 270V350 9999 FEW010 BKN024 OVC054 20/16 Q1015 TEMPO 4000 BR BKN006
  • 211500Z AUTO 32005KT 280V020 9999 BKN009 BKN013 BKN054 19/16 Q1015 TEMPO 4000 BR
  • 211430Z AUTO 31005KT 9999 BKN007 BKN014 BKN019 18/15 Q1015 BECMG BKN025

TAF AMD TAF LFOH
Valid from the 21 at 14:00 until the 22 at 12:00 UTC


211417Z 2114/2212 30005KT 9999 BKN025
TEMPO 2114/2118 4000 BR BKN006
PROB40 2204/2206 0200 FG VV///
ATIS : +33 2 35 54 64 93
No reported NOTAMs for that airfield.



MET'MAP, your aeronautical weather chart ! - Copyright ORBIFLY December 2007 - Disclaimer

ORBIFLY MET'MAP TEAM :

Programming & Development : Alexandra Zaïnal
Concept & Development : Baudouin d'Aumeries
Co-Development & Prog : Marc-Olivier Méhu
Technical & hardware support : Manuel Goepfert

Contact : metmap@orbifly.com




SOURCES & CREDITS :

   NOAA